Racecast

Thomas Favors

East End Track & Field (VA) · 3 · Compare head to head

Athlete rating 107.9 2026 TF season
Best race 109.7 TF
Races 45
Seasons 2 2025 — 2026
Rating scale ?
Speed rating — all races

Track & Field

TF speed rating

2026 TF 104.8

East End Track & Field (VA) · Grade 3

Date Meet Event Result Place Rating Difficulty PR/SR Flags
2026-06-13 AAU Virginia District Qualifier - South 1500m 6:59.26 2nd · 1st on team 99.8 -0.033
2026-06-13 AAU Virginia District Qualifier - South 400m 1:29.78 17th · 2nd on team -0.033
2026-05-24 HR Hurricanes CAT 5 Invite 800m 3:24.69 10th · 2nd on team 101.9 -0.035
2026-05-24 HR Hurricanes CAT 5 Invite 1500m 6:48.09 6th · 1st on team 102.2 -0.035
2026-05-16 2026 Technique Relays javelin 30' 6.50" -0.035
2026-05-16 2026 Technique Relays 800m 3:25.15 11th · 2nd on team 101.6 -0.035
2026-05-16 2026 Technique Relays 400m 1:33.27 36th · 2nd on team -0.035
2026-05-09 VA "Legends" T & F Youth Invite javelin 9.39m -0.033
2026-05-09 VA "Legends" T & F Youth Invite 1500m 6:25.22 7th · 1st on team 108.6 -0.033
2026-03-06 AAU Indoor National Championship 800m 3:24.95 30th · 1st on team 102.1 -0.036
2026-03-06 AAU Indoor National Championship 1500m 6:38.63 14th · 1st on team 104.9 -0.036
2026-02-28 BWSP Queens and Kings Championships shot 13' 4" -0.024
2026-02-28 BWSP Queens and Kings Championships 800m 3:13.71 10th · 1st on team 108.9 -0.024 ★PR SR
2026-02-28 BWSP Queens and Kings Championships 200m 37.42 33rd · 4th on team -0.024 ★PR SR
2026-02-22 3rd Annual HRH Winter Storm Classic shot 14' 3" -0.024
2026-02-22 3rd Annual HRH Winter Storm Classic 1500m 6:25.58 4th · 1st on team 109.4 -0.024
2026-02-22 3rd Annual HRH Winter Storm Classic 800m 3:17.4 9th · 1st on team 106.8 -0.024
2026-01-31 BWSP Queens and Kings - Meet 3 400m 1:27.93 30th · 5th on team -0.024 ★PR SR
2026-01-31 BWSP Queens and Kings - Meet 3 800m 3:19.04 10th · 1st on team 106.0 -0.024
2026-01-31 BWSP Queens and Kings - Meet 3 200m 38.31 37th · 5th on team -0.024 PR SR
2026-01-17 BWSP Queens and Kings - Meet 2 800m 3:17.32 13th · 2nd on team 106.9 -0.024 PR SR
2026-01-17 BWSP Queens and Kings - Meet 2 400m 1:28.55 34th · 7th on team -0.024 PR SR
2026-01-17 BWSP Queens and Kings - Meet 2 200m 39.65 52nd · 6th on team -0.024 PR SR
2026-01-11 Lighting Track Classic 1500m 6:38.72 4th · 1st on team 104.8 -0.036
2026-01-11 Lighting Track Classic 400m 1:29.7 25th · 4th on team -0.036 PR SR
2026-01-03 BWSP Queens and Kings - Meet 1 800m 3:30.21 9th · 2nd on team 100.3 -0.024
2026-01-03 BWSP Queens and Kings - Meet 1 1500m 6:43.6 5th · 1st on team 104.5 -0.024
2025-12-06 Coach Miami Presents the Virginia Beast Invitational 1500m 6:37.26 1st · 1st on team 105.0 -0.036
2025-12-06 Coach Miami Presents the Virginia Beast Invitational 800m 3:23.61 3rd · 1st on team 102.7 -0.036 SR
2025-08-02 AAU Junior Olympic Games 1500m 6:20.36 55th · 1st on team 109.7 -0.032 ★PR ★R SR RSR

2025 TF 101.4

East End Track & Field (VA) · Grade 2

Date Meet Event Result Place Rating Difficulty PR/SR Flags
2025-06-25 AAU Track & Field Region 5 Qualifier javelin 40-01 -0.034
2025-06-25 AAU Track & Field Region 5 Qualifier 1500m 6:41.77 5th · 1st on team 103.8 -0.034 PR SR
2025-06-25 AAU Track & Field Region 5 Qualifier 800m 3:24.59 11th · 1st on team 102.0 -0.034
2025-06-14 AAU Virginia District Qualifier (Southern) javelin 39-10 -0.041
2025-06-14 AAU Virginia District Qualifier (Southern) 800m 3:17.57 6th · 1st on team 104.8 -0.041 PR SR
2025-06-14 AAU Virginia District Qualifier (Southern) 1500m 6:57.78 4th · 1st on team 99.1 -0.041
2025-06-07 Darius Dixon Invite javelin 38-08 -0.032
2025-06-07 Darius Dixon Invite 1500m 6:42.86 1st · 1st on team 103.8 -0.032
2025-06-07 Darius Dixon Invite 800m 3:30.24 2nd · 1st on team 99.5 -0.032 PR SR
2025-05-31 Va Beach Flames Invite javelin 39' 8" -0.023
2025-05-31 Va Beach Flames Invite 1500m 6:42.31 5th · 1st on team 105.3 -0.023 PR R SR RSR
2025-05-31 Va Beach Flames Invite 800m 3:31.9 7th · 1st on team 100.0 -0.023 PR SR
2025-05-10 Legends Invitational hosted by Eastend Lightning javelin 27-09 -0.030
2025-05-10 Legends Invitational hosted by Eastend Lightning 800m 3:42.24 6th · 1st on team 94.3 -0.030 PR R SR RSR
2025-05-10 Legends Invitational hosted by Eastend Lightning 400m 1:35.17 16th · 1st on team -0.030 PR SR